Portada
METAR-TAF:

METAR-TAF

Aeroports :

Bàssora, Iraq

latitud: 30-32-56N, longitud: 47-39-45E, altitud: 1 m

Observació

L'informe es va fer fa 1 hora i 0 minuts, a les 20:00 UTC
Vent 12 kt del Oest/Nord-Oest
Temperatura 33°C
Humitat 24%
Pressió 1005 hPa
Visibilitat 10 km o més
sense núvols per sota de 1500 mi sense presència de cumulonimbus.

METAR: ORMM 282000Z 30012KT CAVOK 33/10 Q1005 NOSIG

Hora: 00:00 (21:00 UTC)

Pronòstic

L'informe es va fer fa 5 hores i 0 minuts, a les 16:00 UTC
Pronòstic vàlid del 28 a les 18 UTC al 29 a les 18 UTC
Vent 14 kt del Nord-Oest
Visibilitat: 7000 m
Temporalment
l' 29 a les 08 UTC al 29 a les 15 UTC
Vent 20 kt del Oest/Nord-Oest amb ràfegues de 30 kt
Visibilitat: 4000 m
torb alta de pols,

TAF: ORMM 281600Z 2818/2918 32014KT 7000 NSC TEMPO 2908/2915 30020G30KT 4000 BLDU

Observacions i pronòstics meteorològics de més de 4000 aeroports (METAR i TAF).

Les estacions disponibles són els punts grocs i vermells al mapa.

Posi el ratolí al punt desitjat per veure el nom de l'estació.

Feu clic per veure les observacions i els pronòstics meteorològics.

Per canviar el mapa: feu clic els botons verds amb una creu de color negre per apropar; al botó verd amb un guió per allunyar la imatge; o en les fletxes verdes per a mapes adjacents.


METAR-TAF: